createdAt,value
2023-01-06T00:02:58.949Z,4.43
2023-01-06T00:07:07.611Z,3.60
2023-01-06T00:11:18.060Z,4.37
2023-01-06T00:15:26.617Z,3.37
2023-01-06T00:19:35.146Z,4.10
2023-01-06T00:23:43.985Z,4.00
2023-01-06T00:27:52.602Z,3.83
2023-01-06T00:32:02.830Z,2.77
2023-01-06T00:36:31.052Z,3.70
2023-01-06T00:40:51.712Z,3.20
2023-01-06T00:45:00.291Z,3.83
2023-01-06T00:49:08.931Z,2.83
2023-01-06T00:53:17.464Z,2.83
2023-01-06T00:57:26.280Z,2.90
2023-01-06T01:01:36.548Z,3.00
2023-01-06T01:05:45.183Z,2.83
2023-01-06T01:09:53.750Z,3.40
2023-01-06T01:14:02.375Z,3.40
2023-01-06T01:18:10.953Z,2.53
2023-01-06T01:22:19.505Z,2.77
2023-01-06T01:26:28.051Z,3.30
2023-01-06T01:30:36.608Z,3.60
2023-01-06T01:34:45.268Z,2.67
2023-01-06T01:38:53.900Z,2.63
2023-01-06T01:43:02.522Z,2.43
2023-01-06T01:47:14.356Z,2.97
2023-01-06T01:51:25.977Z,2.63
2023-01-06T01:55:55.518Z,3.40
2023-01-06T02:00:07.718Z,3.00
2023-01-06T02:04:18.108Z,2.60
2023-01-06T02:08:44.995Z,2.70
2023-01-06T02:12:56.585Z,2.73
2023-01-06T02:17:31.844Z,2.33
2023-01-06T02:22:16.806Z,2.47
2023-01-06T02:26:40.532Z,2.50
2023-01-06T02:31:21.431Z,2.62
2023-01-06T02:35:51.477Z,2.20
2023-01-06T02:40:20.891Z,2.37
2023-01-06T02:44:32.690Z,2.97
2023-01-06T02:48:44.339Z,2.97
2023-01-06T02:53:20.162Z,2.80
2023-01-06T02:57:46.841Z,5.73
2023-01-06T03:01:56.944Z,3.10
2023-01-06T03:06:08.761Z,2.90
2023-01-06T03:10:20.513Z,2.70
2023-01-06T03:14:32.215Z,2.67
2023-01-06T03:18:43.021Z,2.00
2023-01-06T03:22:51.618Z,3.10
2023-01-06T03:27:00.495Z,2.60
2023-01-06T03:31:20.931Z,2.07
2023-01-06T03:35:41.428Z,2.70
2023-01-06T03:39:59.004Z,3.17
2023-01-06T03:44:10.563Z,2.17
2023-01-06T03:48:42.737Z,3.13
2023-01-06T03:53:00.600Z,2.43
2023-01-06T03:57:15.139Z,2.33
2023-01-06T04:01:26.356Z,2.47
2023-01-06T04:05:35.124Z,1.80
2023-01-06T04:09:45.585Z,2.50
2023-01-06T04:13:54.008Z,2.30
2023-01-06T04:18:02.643Z,2.00
2023-01-06T04:22:11.278Z,2.30
2023-01-06T04:26:22.001Z,2.57
2023-01-06T04:30:30.374Z,2.37
2023-01-06T04:34:38.996Z,2.10
2023-01-06T04:38:48.239Z,2.50
2023-01-06T04:43:05.919Z,2.40
2023-01-06T04:47:14.814Z,2.40
2023-01-06T04:51:23.537Z,1.97
2023-01-06T04:55:32.466Z,2.10
2023-01-06T04:59:41.114Z,2.50
2023-01-06T05:03:49.769Z,2.40
2023-01-06T05:07:58.344Z,2.43
2023-01-06T05:12:07.064Z,2.60
2023-01-06T05:16:18.876Z,1.83
2023-01-06T05:20:27.531Z,2.20
2023-01-06T05:24:36.044Z,2.43
2023-01-06T05:28:44.685Z,2.50
2023-01-06T05:32:54.181Z,2.13
2023-01-06T05:37:02.767Z,1.77
2023-01-06T05:41:11.491Z,2.23
2023-01-06T05:45:39.424Z,2.60
2023-01-06T05:49:48.001Z,2.80
2023-01-06T05:53:56.947Z,2.50
2023-01-06T05:58:05.529Z,2.33
2023-01-06T06:02:14.223Z,2.70
2023-01-06T06:06:24.282Z,2.67
2023-01-06T06:10:34.782Z,2.13
2023-01-06T06:14:43.152Z,2.37
2023-01-06T06:18:53.972Z,2.37
2023-01-06T06:23:02.568Z,1.70
2023-01-06T06:27:11.091Z,2.40
2023-01-06T06:31:25.288Z,2.20
2023-01-06T06:35:34.081Z,2.50
2023-01-06T06:39:42.657Z,2.40
2023-01-06T06:43:51.903Z,2.17
2023-01-06T06:48:00.415Z,2.23
2023-01-06T06:52:08.973Z,2.20
2023-01-06T06:56:18.971Z,2.00
2023-01-06T07:00:27.900Z,2.57
2023-01-06T07:04:36.560Z,2.20
2023-01-06T07:08:46.466Z,2.33
2023-01-06T07:12:55.123Z,2.07
2023-01-06T07:17:03.676Z,1.90
2023-01-06T07:21:12.412Z,2.50
2023-01-06T07:25:40.302Z,2.70
2023-01-06T07:29:48.853Z,2.10
2023-01-06T07:33:57.422Z,1.90
2023-01-06T07:38:08.011Z,2.00
2023-01-06T07:42:16.561Z,2.00
2023-01-06T07:46:26.149Z,2.20
2023-01-06T07:50:34.895Z,1.90
2023-01-06T07:54:43.520Z,2.10
2023-01-06T07:58:52.050Z,1.87
2023-01-06T08:03:02.146Z,2.27
2023-01-06T08:07:10.647Z,2.13
2023-01-06T08:11:19.196Z,1.80
2023-01-06T08:15:28.119Z,1.90
2023-01-06T08:19:36.861Z,2.23
2023-01-06T08:23:45.489Z,2.10
2023-01-06T08:27:54.191Z,2.13
2023-01-06T08:32:10.320Z,2.23
2023-01-06T08:36:18.209Z,2.00
2023-01-06T08:40:39.092Z,2.10
2023-01-06T08:44:47.852Z,1.90
2023-01-06T08:48:57.930Z,2.17
2023-01-06T08:53:07.120Z,2.23
2023-01-06T08:57:35.158Z,2.03
2023-01-06T09:01:44.230Z,1.90
2023-01-06T09:05:57.625Z,2.03
2023-01-06T09:10:07.500Z,2.20
2023-01-06T09:14:16.079Z,2.53
2023-01-06T09:18:24.744Z,1.93
2023-01-06T09:22:33.303Z,2.23
2023-01-06T09:26:42.026Z,3.17
2023-01-06T09:30:51.083Z,2.63
2023-01-06T09:34:59.661Z,1.90
2023-01-06T09:39:08.346Z,2.30
2023-01-06T09:43:41.214Z,2.87
2023-01-06T09:47:52.845Z,2.30
2023-01-06T09:52:04.478Z,2.67
2023-01-06T09:56:15.862Z,2.00
2023-01-06T10:00:49.601Z,2.00
2023-01-06T10:04:58.226Z,2.90
2023-01-06T10:09:09.845Z,2.43
2023-01-06T10:13:39.770Z,2.33
2023-01-06T10:18:25.040Z,2.40
2023-01-06T10:22:42.412Z,2.27
2023-01-06T10:26:54.047Z,4.40
2023-01-06T10:31:08.765Z,2.50
2023-01-06T10:35:19.995Z,2.90
2023-01-06T10:39:29.271Z,2.67
2023-01-06T10:43:49.792Z,2.67
2023-01-06T10:47:59.535Z,2.50
2023-01-06T10:52:10.955Z,2.40
2023-01-06T10:56:19.508Z,2.80
2023-01-06T11:00:57.572Z,3.10
2023-01-06T11:05:06.637Z,3.50
2023-01-06T11:09:42.931Z,2.60
2023-01-06T11:14:12.410Z,2.47
2023-01-06T11:18:29.540Z,2.80
2023-01-06T11:22:40.345Z,3.00
2023-01-06T11:27:18.114Z,2.93
2023-01-06T11:31:28.761Z,3.20
2023-01-06T11:35:38.664Z,4.50
2023-01-06T11:39:49.224Z,5.10
2023-01-06T11:44:00.391Z,5.20
2023-01-06T11:48:14.951Z,4.13
2023-01-06T11:52:33.723Z,3.23
2023-01-06T11:56:42.725Z,3.40
2023-01-06T12:00:57.665Z,3.33
2023-01-06T12:05:09.299Z,3.40
2023-01-06T12:09:26.830Z,2.93
2023-01-06T12:13:44.297Z,3.20
2023-01-06T12:17:54.328Z,2.70
2023-01-06T12:22:03.968Z,2.80
2023-01-06T12:26:18.629Z,2.93
2023-01-06T12:30:51.248Z,3.00
2023-01-06T12:35:03.067Z,2.90
2023-01-06T12:39:20.532Z,2.90
2023-01-06T12:43:32.496Z,2.83
2023-01-06T12:47:46.935Z,2.50
2023-01-06T12:51:58.108Z,2.70
2023-01-06T12:56:24.976Z,3.47
2023-01-06T13:00:45.942Z,2.27
2023-01-06T13:05:09.782Z,2.87
2023-01-06T13:09:33.015Z,3.10
2023-01-06T13:13:56.324Z,3.00
2023-01-06T13:18:13.971Z,2.70
2023-01-06T13:22:28.442Z,2.77
2023-01-06T13:27:01.327Z,2.50
2023-01-06T13:31:23.339Z,4.07
2023-01-06T13:35:51.760Z,6.40
2023-01-06T13:40:06.115Z,3.13
2023-01-06T13:44:26.364Z,4.77
2023-01-06T13:48:40.957Z,3.30
2023-01-06T13:52:51.054Z,3.30
2023-01-06T13:57:24.071Z,2.23
2023-01-06T14:01:34.261Z,2.50
2023-01-06T14:05:46.114Z,2.33
2023-01-06T14:09:54.958Z,2.23
2023-01-06T14:14:06.409Z,2.40
2023-01-06T14:18:18.150Z,2.17
2023-01-06T14:22:47.688Z,2.47
2023-01-06T14:27:02.557Z,1.90
2023-01-06T14:31:29.317Z,2.20
2023-01-06T14:35:42.915Z,2.43
2023-01-06T14:39:54.139Z,2.20
2023-01-06T14:44:05.931Z,1.77
2023-01-06T14:48:17.796Z,1.97
2023-01-06T14:52:38.101Z,2.77
2023-01-06T14:57:06.305Z,2.30
2023-01-06T15:01:24.577Z,1.90
2023-01-06T15:05:38.639Z,1.80
2023-01-06T15:09:49.182Z,2.03
2023-01-06T15:13:58.258Z,2.30
2023-01-06T15:18:08.447Z,2.37
2023-01-06T15:22:22.881Z,2.40
2023-01-06T15:26:32.656Z,2.50
2023-01-06T15:30:44.355Z,2.60
2023-01-06T15:34:56.357Z,2.93
2023-01-06T15:39:07.497Z,2.40
2023-01-06T15:43:17.006Z,3.23
2023-01-06T15:47:46.580Z,2.73
2023-01-06T15:51:58.926Z,3.20
2023-01-06T15:56:09.536Z,3.00
2023-01-06T16:00:39.019Z,3.00
2023-01-06T16:04:48.987Z,3.27
2023-01-06T16:09:23.907Z,3.90
2023-01-06T16:14:00.905Z,4.60
2023-01-06T16:18:10.172Z,4.27
2023-01-06T16:22:33.624Z,3.80
2023-01-06T16:26:48.365Z,7.03
2023-01-06T16:31:14.601Z,5.20
2023-01-06T16:35:28.922Z,4.40
2023-01-06T16:39:37.468Z,3.97
2023-01-06T16:43:58.792Z,3.87
2023-01-06T16:48:07.531Z,3.97
2023-01-06T16:52:35.469Z,5.00
2023-01-06T16:56:45.242Z,4.20
2023-01-06T17:00:56.314Z,4.50
2023-01-06T17:05:07.521Z,4.13
2023-01-06T17:09:21.622Z,3.93
2023-01-06T17:13:39.005Z,3.77
2023-01-06T17:17:47.723Z,5.83
2023-01-06T17:22:05.233Z,4.83
2023-01-06T17:26:16.595Z,4.53
2023-01-06T17:30:25.168Z,4.10
2023-01-06T17:34:35.840Z,3.97
2023-01-06T17:38:47.963Z,4.20
2023-01-06T17:43:02.563Z,3.90
2023-01-06T17:47:14.246Z,4.17
2023-01-06T17:51:22.967Z,4.17
2023-01-06T17:55:43.572Z,4.00
2023-01-06T17:59:55.147Z,4.37
2023-01-06T18:04:05.412Z,4.57
2023-01-06T18:08:16.831Z,4.10
2023-01-06T18:12:26.215Z,4.87
2023-01-06T18:16:35.694Z,3.73
2023-01-06T18:20:56.460Z,4.30
2023-01-06T18:25:07.652Z,4.13
2023-01-06T18:29:22.205Z,4.17
2023-01-06T18:33:51.004Z,3.70
2023-01-06T18:38:05.473Z,3.43
2023-01-06T18:42:32.240Z,3.47
2023-01-06T18:46:42.510Z,3.80
2023-01-06T18:50:53.177Z,3.93
2023-01-06T18:55:25.976Z,4.00
2023-01-06T18:59:34.506Z,4.03
2023-01-06T19:03:45.678Z,4.33
2023-01-06T19:07:57.503Z,4.07
2023-01-06T19:12:20.708Z,4.00
2023-01-06T19:16:53.496Z,4.80
2023-01-06T19:21:04.140Z,3.43
2023-01-06T19:25:36.510Z,4.37
2023-01-06T19:29:45.128Z,3.87
2023-01-06T19:33:59.698Z,4.30
2023-01-06T19:38:11.301Z,4.17
2023-01-06T19:42:32.071Z,4.40
2023-01-06T19:46:42.998Z,4.17
2023-01-06T19:51:15.172Z,4.97
2023-01-06T19:55:29.359Z,4.10
2023-01-06T19:59:58.804Z,4.00
2023-01-06T20:04:19.355Z,4.30
2023-01-06T20:08:27.984Z,4.40
2023-01-06T20:12:38.415Z,4.40
2023-01-06T20:16:47.893Z,4.50
2023-01-06T20:20:56.537Z,4.83
2023-01-06T20:25:05.499Z,3.77
2023-01-06T20:29:14.112Z,3.80
2023-01-06T20:33:22.729Z,3.43
2023-01-06T20:37:32.378Z,3.97
2023-01-06T20:41:41.007Z,4.10
2023-01-06T20:46:10.495Z,4.23
2023-01-06T20:50:20.676Z,4.20
2023-01-06T20:54:29.252Z,3.60
2023-01-06T20:58:37.844Z,4.80
2023-01-06T21:02:46.460Z,4.63
2023-01-06T21:06:55.057Z,3.87
2023-01-06T21:11:03.627Z,3.60
2023-01-06T21:15:12.730Z,4.30
2023-01-06T21:19:21.317Z,4.15
2023-01-06T21:23:29.935Z,4.20
2023-01-06T21:27:38.489Z,3.33
2023-01-06T21:31:48.038Z,3.70
2023-01-06T21:35:56.630Z,3.60
2023-01-06T21:40:08.948Z,3.90
2023-01-06T21:44:17.575Z,3.30
2023-01-06T21:48:45.561Z,3.17
2023-01-06T21:52:54.704Z,4.00
2023-01-06T21:57:03.735Z,3.43
2023-01-06T22:01:13.180Z,3.60
2023-01-06T22:05:22.293Z,3.70
2023-01-06T22:09:31.805Z,3.40
2023-01-06T22:13:42.086Z,3.87
2023-01-06T22:17:51.497Z,3.47
2023-01-06T22:22:21.429Z,3.80
2023-01-06T22:26:29.994Z,3.13
2023-01-06T22:30:38.993Z,2.90
2023-01-06T22:34:48.243Z,3.30
2023-01-06T22:38:56.851Z,3.97
2023-01-06T22:43:08.344Z,3.10
2023-01-06T22:47:16.975Z,3.20
2023-01-06T22:51:27.325Z,3.07
2023-01-06T22:55:36.147Z,3.00
2023-01-06T22:59:44.754Z,2.83
2023-01-06T23:03:53.294Z,3.50
2023-01-06T23:08:01.969Z,3.20
2023-01-06T23:12:10.518Z,3.03
2023-01-06T23:16:22.144Z,2.63
2023-01-06T23:20:30.713Z,2.90
2023-01-06T23:24:39.240Z,3.17
2023-01-06T23:28:48.092Z,2.53
2023-01-06T23:32:56.600Z,3.20
2023-01-06T23:37:05.152Z,3.20
2023-01-06T23:41:19.338Z,3.30
2023-01-06T23:45:28.017Z,2.80
2023-01-06T23:49:36.578Z,2.80
2023-01-06T23:53:46.205Z,2.70
2023-01-06T23:57:54.744Z,2.80
